North Falmouth, Massachusetts
Current Conditions -  °F | °C
As of 7:15 AM on Thursday 23 Oct 2014 (Local Time) from KFMH Reporting Station
Haze Haze  
Wind Chill: 57°   Ceiling: 600
Heat Index: 57°   Visibility: 6mi
Dew Point: 55°   Wind: 15mph
Humidity: 94%   Direction: 20°NNE
Pressure: 29.55"   Gusts: 23mph
Location:  41.64°N, 70.63°W
Report Text: KFMH 231115Z AUTO 02013G20KT 6SM BR OVC006 14/13 A2955 RMK AO2 LTG DSNT NE-S
Loading
Personal Weather Stations






























Interactive Weather Map
Tropical Storm Tracking
New forecast layout! Learn more

10-Day Weather Forecast

Advertisements
Track Severe Weather on mobile